<?xml version="1.0" encoding="utf-8"?>
<gpx xmlns:xsi="http://www.w3.org/2001/XMLSchema-instance" xmlns:xsd="http://www.w3.org/2001/XMLSchema" version="1.1" creator="Shapelink.com" xmlns="http://www.topografix.com/GPX/1/1" xmlns:gpxtpx="http://www.garmin.com/xmlschemas/TrackPointExtension/v1">
  <metadata>
    <name>Løping 5.06 km, 2019-04-04</name>
    <desc></desc>
    <author><name>Stefan Östlund</name></author> 
    <time>2019-04-04T11:40:45Z</time>
  </metadata>
  <trk>
    <name>Løping 5.06 km, 2019-04-04</name>
    <trkseg>
      <trkpt lat="59.982110048042" lon="15.79256074854">
        <ele>99.4</ele>
        <time>2019-04-04T11:40:45Z</time>
      </trkpt>
      <trkpt lat="59.981982726981" lon="15.792728973273">
        <ele>98.8</ele>
        <time>2019-04-04T11:40:51Z</time>
      </trkpt>
      <trkpt lat="59.981902260741" lon="15.792827628236">
        <ele>98.4</ele>
        <time>2019-04-04T11:40:55Z</time>
      </trkpt>
      <trkpt lat="59.981785584693" lon="15.793013957873">
        <ele>98.4</ele>
        <time>2019-04-04T11:41:01Z</time>
      </trkpt>
      <trkpt lat="59.981679134563" lon="15.793167514281">
        <ele>98.4</ele>
        <time>2019-04-04T11:41:07Z</time>
      </trkpt>
      <trkpt lat="59.981634375217" lon="15.793411427571">
        <ele>97.8</ele>
        <time>2019-04-04T11:41:13Z</time>
      </trkpt>
      <trkpt lat="59.98165759308" lon="15.793676211792">
        <ele>98</ele>
        <time>2019-04-04T11:41:19Z</time>
      </trkpt>
      <trkpt lat="59.981723223357" lon="15.793904115653">
        <ele>98.8</ele>
        <time>2019-04-04T11:41:25Z</time>
      </trkpt>
      <trkpt lat="59.981793966593" lon="15.794075860784">
        <ele>98.6</ele>
        <time>2019-04-04T11:41:31Z</time>
      </trkpt>
      <trkpt lat="59.981887760054" lon="15.794278032212">
        <ele>99.4</ele>
        <time>2019-04-04T11:41:37Z</time>
      </trkpt>
      <trkpt lat="59.981899327076" lon="15.79430921288">
        <ele>99.6</ele>
        <time>2019-04-04T11:41:38Z</time>
      </trkpt>
      <trkpt lat="59.981965963181" lon="15.794515239982">
        <ele>99.8</ele>
        <time>2019-04-04T11:41:44Z</time>
      </trkpt>
      <trkpt lat="59.982034359485" lon="15.794691008425">
        <ele>100</ele>
        <time>2019-04-04T11:41:50Z</time>
      </trkpt>
      <trkpt lat="59.982103761617" lon="15.794861328633">
        <ele>100.6</ele>
        <time>2019-04-04T11:41:55Z</time>
      </trkpt>
      <trkpt lat="59.982190179006" lon="15.795075150902">
        <ele>101</ele>
        <time>2019-04-04T11:42:01Z</time>
      </trkpt>
      <trkpt lat="59.982295790946" lon="15.795284530764">
        <ele>101</ele>
        <time>2019-04-04T11:42:07Z</time>
      </trkpt>
      <trkpt lat="59.982400648515" lon="15.795466250356">
        <ele>101.2</ele>
        <time>2019-04-04T11:42:13Z</time>
      </trkpt>
      <trkpt lat="59.982428308785" lon="15.795544034388">
        <ele>101.4</ele>
        <time>2019-04-04T11:42:15Z</time>
      </trkpt>
      <trkpt lat="59.982327223071" lon="15.795767914937">
        <ele>101.4</ele>
        <time>2019-04-04T11:42:21Z</time>
      </trkpt>
      <trkpt lat="59.982210547023" lon="15.795981150473">
        <ele>101</ele>
        <time>2019-04-04T11:42:27Z</time>
      </trkpt>
      <trkpt lat="59.982145000565" lon="15.796088103517">
        <ele>100.6</ele>
        <time>2019-04-04T11:42:31Z</time>
      </trkpt>
      <trkpt lat="59.982049279267" lon="15.796300668501">
        <ele>100.6</ele>
        <time>2019-04-04T11:42:37Z</time>
      </trkpt>
      <trkpt lat="59.981957832738" lon="15.796536870443">
        <ele>100.6</ele>
        <time>2019-04-04T11:42:43Z</time>
      </trkpt>
      <trkpt lat="59.98187468429" lon="15.796783801217">
        <ele>100</ele>
        <time>2019-04-04T11:42:49Z</time>
      </trkpt>
      <trkpt lat="59.981841575785" lon="15.796915564685">
        <ele>99.4</ele>
        <time>2019-04-04T11:42:52Z</time>
      </trkpt>
      <trkpt lat="59.981784327408" lon="15.797185378046">
        <ele>98.2</ele>
        <time>2019-04-04T11:42:58Z</time>
      </trkpt>
      <trkpt lat="59.981753733473" lon="15.797433230829">
        <ele>97.4</ele>
        <time>2019-04-04T11:43:04Z</time>
      </trkpt>
      <trkpt lat="59.981754236387" lon="15.797468099533">
        <ele>97.2</ele>
        <time>2019-04-04T11:43:05Z</time>
      </trkpt>
      <trkpt lat="59.981786758159" lon="15.79762173976">
        <ele>96</ele>
        <time>2019-04-04T11:43:09Z</time>
      </trkpt>
      <trkpt lat="59.981832690971" lon="15.797706564588">
        <ele>95</ele>
        <time>2019-04-04T11:43:12Z</time>
      </trkpt>
      <trkpt lat="59.981851047332" lon="15.79778099586">
        <ele>94</ele>
        <time>2019-04-04T11:43:15Z</time>
      </trkpt>
      <trkpt lat="59.98183277479" lon="15.797805973922">
        <ele>93.6</ele>
        <time>2019-04-04T11:43:16Z</time>
      </trkpt>
      <trkpt lat="59.981705453729" lon="15.797779654756">
        <ele>92.6</ele>
        <time>2019-04-04T11:43:21Z</time>
      </trkpt>
      <trkpt lat="59.981563967257" lon="15.797720143266">
        <ele>92.8</ele>
        <time>2019-04-04T11:43:27Z</time>
      </trkpt>
      <trkpt lat="59.981496995876" lon="15.797637497732">
        <ele>92.6</ele>
        <time>2019-04-04T11:43:30Z</time>
      </trkpt>
      <trkpt lat="59.98136925572" lon="15.79759743225">
        <ele>92.8</ele>
        <time>2019-04-04T11:43:36Z</time>
      </trkpt>
      <trkpt lat="59.981249813645" lon="15.797513445612">
        <ele>93.6</ele>
        <time>2019-04-04T11:43:41Z</time>
      </trkpt>
      <trkpt lat="59.981107488983" lon="15.797410934975">
        <ele>94.2</ele>
        <time>2019-04-04T11:43:47Z</time>
      </trkpt>
      <trkpt lat="59.980980167922" lon="15.797258719671">
        <ele>94.6</ele>
        <time>2019-04-04T11:43:53Z</time>
      </trkpt>
      <trkpt lat="59.980962314475" lon="15.797229885935">
        <ele>94.8</ele>
        <time>2019-04-04T11:43:54Z</time>
      </trkpt>
      <trkpt lat="59.98085460706" lon="15.797047998705">
        <ele>94.8</ele>
        <time>2019-04-04T11:44:00Z</time>
      </trkpt>
      <trkpt lat="59.980747402559" lon="15.796869715692">
        <ele>95.2</ele>
        <time>2019-04-04T11:44:06Z</time>
      </trkpt>
      <trkpt lat="59.980638605497" lon="15.796676764354">
        <ele>95.2</ele>
        <time>2019-04-04T11:44:12Z</time>
      </trkpt>
      <trkpt lat="59.980522516182" lon="15.796496469685">
        <ele>95</ele>
        <time>2019-04-04T11:44:18Z</time>
      </trkpt>
      <trkpt lat="59.980462501778" lon="15.796420781128">
        <ele>95.8</ele>
        <time>2019-04-04T11:44:21Z</time>
      </trkpt>
      <trkpt lat="59.980350771051" lon="15.796267643815">
        <ele>95.6</ele>
        <time>2019-04-04T11:44:27Z</time>
      </trkpt>
      <trkpt lat="59.980229484958" lon="15.796091372458">
        <ele>96</ele>
        <time>2019-04-04T11:44:33Z</time>
      </trkpt>
      <trkpt lat="59.98011280891" lon="15.79590764121">
        <ele>96</ele>
        <time>2019-04-04T11:44:39Z</time>
      </trkpt>
      <trkpt lat="59.98000384421" lon="15.795753330431">
        <ele>96.4</ele>
        <time>2019-04-04T11:44:45Z</time>
      </trkpt>
      <trkpt lat="59.979889682732" lon="15.79557236521">
        <ele>96.6</ele>
        <time>2019-04-04T11:44:51Z</time>
      </trkpt>
      <trkpt lat="59.979765462974" lon="15.79538712522">
        <ele>96.6</ele>
        <time>2019-04-04T11:44:57Z</time>
      </trkpt>
      <trkpt lat="59.979743670034" lon="15.79535862676">
        <ele>96.8</ele>
        <time>2019-04-04T11:44:58Z</time>
      </trkpt>
      <trkpt lat="59.979624060321" lon="15.795176320435">
        <ele>96.8</ele>
        <time>2019-04-04T11:45:04Z</time>
      </trkpt>
      <trkpt lat="59.97949925383" lon="15.795020752371">
        <ele>97</ele>
        <time>2019-04-04T11:45:10Z</time>
      </trkpt>
      <trkpt lat="59.979382410144" lon="15.794854706932">
        <ele>97.6</ele>
        <time>2019-04-04T11:45:16Z</time>
      </trkpt>
      <trkpt lat="59.979364221421" lon="15.794828136309">
        <ele>98</ele>
        <time>2019-04-04T11:45:17Z</time>
      </trkpt>
      <trkpt lat="59.9792586933" lon="15.794643566871">
        <ele>98.2</ele>
        <time>2019-04-04T11:45:23Z</time>
      </trkpt>
      <trkpt lat="59.979130785506" lon="15.794468971894">
        <ele>98.4</ele>
        <time>2019-04-04T11:45:29Z</time>
      </trkpt>
      <trkpt lat="59.979019473874" lon="15.794293035813">
        <ele>98.6</ele>
        <time>2019-04-04T11:45:35Z</time>
      </trkpt>
      <trkpt lat="59.978913526658" lon="15.794176192127">
        <ele>99</ele>
        <time>2019-04-04T11:45:40Z</time>
      </trkpt>
      <trkpt lat="59.978795844782" lon="15.79400746448">
        <ele>99</ele>
        <time>2019-04-04T11:45:46Z</time>
      </trkpt>
      <trkpt lat="59.978668691359" lon="15.793821553938">
        <ele>99.4</ele>
        <time>2019-04-04T11:45:52Z</time>
      </trkpt>
      <trkpt lat="59.978604737462" lon="15.79374175825">
        <ele>99.6</ele>
        <time>2019-04-04T11:45:55Z</time>
      </trkpt>
      <trkpt lat="59.978495521305" lon="15.793583759435">
        <ele>99.8</ele>
        <time>2019-04-04T11:46:01Z</time>
      </trkpt>
      <trkpt lat="59.978434584892" lon="15.793499437521">
        <ele>100</ele>
        <time>2019-04-04T11:46:04Z</time>
      </trkpt>
      <trkpt lat="59.978302905243" lon="15.793336828661">
        <ele>100</ele>
        <time>2019-04-04T11:46:10Z</time>
      </trkpt>
      <trkpt lat="59.978176925286" lon="15.793163910064">
        <ele>100.2</ele>
        <time>2019-04-04T11:46:16Z</time>
      </trkpt>
      <trkpt lat="59.978057231754" lon="15.792985375594">
        <ele>100</ele>
        <time>2019-04-04T11:46:22Z</time>
      </trkpt>
      <trkpt lat="59.977943657009" lon="15.792794268274">
        <ele>99.8</ele>
        <time>2019-04-04T11:46:28Z</time>
      </trkpt>
      <trkpt lat="59.977817593233" lon="15.792630569767">
        <ele>99.8</ele>
        <time>2019-04-04T11:46:34Z</time>
      </trkpt>
      <trkpt lat="59.977701923013" lon="15.792454717505">
        <ele>99.4</ele>
        <time>2019-04-04T11:46:40Z</time>
      </trkpt>
      <trkpt lat="59.977584408775" lon="15.792259586873">
        <ele>99</ele>
        <time>2019-04-04T11:46:46Z</time>
      </trkpt>
      <trkpt lat="59.977565046586" lon="15.792232680974">
        <ele>99</ele>
        <time>2019-04-04T11:46:47Z</time>
      </trkpt>
      <trkpt lat="59.977441665018" lon="15.792047189527">
        <ele>98.8</ele>
        <time>2019-04-04T11:46:53Z</time>
      </trkpt>
      <trkpt lat="59.977338986743" lon="15.791868655057">
        <ele>98</ele>
        <time>2019-04-04T11:46:59Z</time>
      </trkpt>
      <trkpt lat="59.977234715907" lon="15.791668411466">
        <ele>98.2</ele>
        <time>2019-04-04T11:47:05Z</time>
      </trkpt>
      <trkpt lat="59.977119297144" lon="15.791443860365">
        <ele>98.2</ele>
        <time>2019-04-04T11:47:11Z</time>
      </trkpt>
      <trkpt lat="59.977010919177" lon="15.791236073064">
        <ele>98.6</ele>
        <time>2019-04-04T11:47:17Z</time>
      </trkpt>
      <trkpt lat="59.976912515671" lon="15.791031638523">
        <ele>98.8</ele>
        <time>2019-04-04T11:47:23Z</time>
      </trkpt>
      <trkpt lat="59.976814782717" lon="15.790806500689">
        <ele>99</ele>
        <time>2019-04-04T11:47:29Z</time>
      </trkpt>
      <trkpt lat="59.97671730122" lon="15.790566107797">
        <ele>99.2</ele>
        <time>2019-04-04T11:47:35Z</time>
      </trkpt>
      <trkpt lat="59.976632057297" lon="15.790350609148">
        <ele>99.2</ele>
        <time>2019-04-04T11:47:41Z</time>
      </trkpt>
      <trkpt lat="59.97658905815" lon="15.790227898132">
        <ele>99.4</ele>
        <time>2019-04-04T11:47:47Z</time>
      </trkpt>
      <trkpt lat="59.976555111455" lon="15.790159082733">
        <ele>99.6</ele>
        <time>2019-04-04T11:47:53Z</time>
      </trkpt>
      <trkpt lat="59.976557793663" lon="15.790138211802">
        <ele>99.4</ele>
        <time>2019-04-04T11:47:59Z</time>
      </trkpt>
      <trkpt lat="59.976569612142" lon="15.790097224311">
        <ele>99.6</ele>
        <time>2019-04-04T11:48:05Z</time>
      </trkpt>
      <trkpt lat="59.976583777553" lon="15.790079119407">
        <ele>99.4</ele>
        <time>2019-04-04T11:48:11Z</time>
      </trkpt>
      <trkpt lat="59.976599619344" lon="15.790049698938">
        <ele>99.2</ele>
        <time>2019-04-04T11:48:17Z</time>
      </trkpt>
      <trkpt lat="59.976532647963" lon="15.789851886098">
        <ele>99</ele>
        <time>2019-04-04T11:48:23Z</time>
      </trkpt>
      <trkpt lat="59.976416726286" lon="15.789570002801">
        <ele>99.8</ele>
        <time>2019-04-04T11:48:27Z</time>
      </trkpt>
      <trkpt lat="59.976385294161" lon="15.789500684488">
        <ele>99.8</ele>
        <time>2019-04-04T11:48:28Z</time>
      </trkpt>
      <trkpt lat="59.976321004988" lon="15.789362299319">
        <ele>100</ele>
        <time>2019-04-04T11:48:30Z</time>
      </trkpt>
      <trkpt lat="59.976195611764" lon="15.789011684442">
        <ele>100</ele>
        <time>2019-04-04T11:48:35Z</time>
      </trkpt>
      <trkpt lat="59.976080695915" lon="15.788676240804">
        <ele>100.2</ele>
        <time>2019-04-04T11:48:40Z</time>
      </trkpt>
      <trkpt lat="59.975958068718" lon="15.788344904297">
        <ele>100.4</ele>
        <time>2019-04-04T11:48:45Z</time>
      </trkpt>
      <trkpt lat="59.975835776797" lon="15.788012897238">
        <ele>101</ele>
        <time>2019-04-04T11:48:50Z</time>
      </trkpt>
      <trkpt lat="59.97581121783" lon="15.787943746563">
        <ele>101.2</ele>
        <time>2019-04-04T11:48:51Z</time>
      </trkpt>
      <trkpt lat="59.975767296674" lon="15.787799996978">
        <ele>101.2</ele>
        <time>2019-04-04T11:48:53Z</time>
      </trkpt>
      <trkpt lat="59.975735277816" lon="15.787650212425">
        <ele>101.4</ele>
        <time>2019-04-04T11:48:55Z</time>
      </trkpt>
      <trkpt lat="59.975703007501" lon="15.787347122921">
        <ele>101.4</ele>
        <time>2019-04-04T11:48:59Z</time>
      </trkpt>
      <trkpt lat="59.975679119086" lon="15.787205720268">
        <ele>101</ele>
        <time>2019-04-04T11:49:01Z</time>
      </trkpt>
      <trkpt lat="59.975586163815" lon="15.786850746803">
        <ele>101.2</ele>
        <time>2019-04-04T11:49:06Z</time>
      </trkpt>
      <trkpt lat="59.97554970255" lon="15.78644363792">
        <ele>100.8</ele>
        <time>2019-04-04T11:49:11Z</time>
      </trkpt>
      <trkpt lat="59.975501841901" lon="15.786071733017">
        <ele>101</ele>
        <time>2019-04-04T11:49:16Z</time>
      </trkpt>
      <trkpt lat="59.975377705962" lon="15.785716591914">
        <ele>100.2</ele>
        <time>2019-04-04T11:49:23Z</time>
      </trkpt>
      <trkpt lat="59.97536446256" lon="15.785702426503">
        <ele>100.2</ele>
        <time>2019-04-04T11:49:24Z</time>
      </trkpt>
      <trkpt lat="59.975365133112" lon="15.785695637164">
        <ele>100.2</ele>
        <time>2019-04-04T11:49:25Z</time>
      </trkpt>
      <trkpt lat="59.97537954998" lon="15.785698235553">
        <ele>100.6</ele>
        <time>2019-04-04T11:49:31Z</time>
      </trkpt>
      <trkpt lat="59.975385920224" lon="15.785700666304">
        <ele>100.6</ele>
        <time>2019-04-04T11:49:37Z</time>
      </trkpt>
      <trkpt lat="59.975400085635" lon="15.785710137851">
        <ele>100.6</ele>
        <time>2019-04-04T11:49:43Z</time>
      </trkpt>
      <trkpt lat="59.975409808639" lon="15.78572111814">
        <ele>100.6</ele>
        <time>2019-04-04T11:49:49Z</time>
      </trkpt>
      <trkpt lat="59.975452556329" lon="15.785803596036">
        <ele>100.4</ele>
        <time>2019-04-04T11:49:55Z</time>
      </trkpt>
      <trkpt lat="59.975552887672" lon="15.786096459622">
        <ele>100.8</ele>
        <time>2019-04-04T11:49:59Z</time>
      </trkpt>
      <trkpt lat="59.975573590965" lon="15.786182877011">
        <ele>101.2</ele>
        <time>2019-04-04T11:50:00Z</time>
      </trkpt>
      <trkpt lat="59.97559245024" lon="15.786364261327">
        <ele>101.6</ele>
        <time>2019-04-04T11:50:02Z</time>
      </trkpt>
      <trkpt lat="59.975635784663" lon="15.786782434318">
        <ele>101.8</ele>
        <time>2019-04-04T11:50:07Z</time>
      </trkpt>
      <trkpt lat="59.975700912026" lon="15.787201277861">
        <ele>101.8</ele>
        <time>2019-04-04T11:50:12Z</time>
      </trkpt>
      <trkpt lat="59.975754053272" lon="15.787445442608">
        <ele>101.8</ele>
        <time>2019-04-04T11:50:15Z</time>
      </trkpt>
      <trkpt lat="59.975788921976" lon="15.78767912998">
        <ele>101.8</ele>
        <time>2019-04-04T11:50:18Z</time>
      </trkpt>
      <trkpt lat="59.975848684923" lon="15.787874931164">
        <ele>101.4</ele>
        <time>2019-04-04T11:50:21Z</time>
      </trkpt>
      <trkpt lat="59.975946585515" lon="15.788138961014">
        <ele>101.4</ele>
        <time>2019-04-04T11:50:25Z</time>
      </trkpt>
      <trkpt lat="59.976030320696" lon="15.788473817919">
        <ele>101.2</ele>
        <time>2019-04-04T11:50:30Z</time>
      </trkpt>
      <trkpt lat="59.976111876583" lon="15.788734159733">
        <ele>100.2</ele>
        <time>2019-04-04T11:50:34Z</time>
      </trkpt>
      <trkpt lat="59.976230396649" lon="15.789045547318">
        <ele>100.6</ele>
        <time>2019-04-04T11:50:39Z</time>
      </trkpt>
      <trkpt lat="59.97634346848" lon="15.78936473007">
        <ele>100.6</ele>
        <time>2019-04-04T11:50:44Z</time>
      </trkpt>
      <trkpt lat="59.97644405128" lon="15.789732192566">
        <ele>99.6</ele>
        <time>2019-04-04T11:50:50Z</time>
      </trkpt>
      <trkpt lat="59.976569695961" lon="15.790113149921">
        <ele>99.2</ele>
        <time>2019-04-04T11:50:59Z</time>
      </trkpt>
      <trkpt lat="59.976578664594" lon="15.790120609812">
        <ele>99.2</ele>
        <time>2019-04-04T11:51:05Z</time>
      </trkpt>
      <trkpt lat="59.976584364286" lon="15.790122370011">
        <ele>99.2</ele>
        <time>2019-04-04T11:51:06Z</time>
      </trkpt>
      <trkpt lat="59.976598864973" lon="15.790143492399">
        <ele>99.4</ele>
        <time>2019-04-04T11:51:12Z</time>
      </trkpt>
      <trkpt lat="59.976590818349" lon="15.790159669466">
        <ele>99.4</ele>
        <time>2019-04-04T11:51:18Z</time>
      </trkpt>
      <trkpt lat="59.976571707617" lon="15.790159669466">
        <ele>99.6</ele>
        <time>2019-04-04T11:51:24Z</time>
      </trkpt>
      <trkpt lat="59.97646416784" lon="15.789891700123">
        <ele>99.8</ele>
        <time>2019-04-04T11:51:32Z</time>
      </trkpt>
      <trkpt lat="59.976359729366" lon="15.789596573424">
        <ele>100</ele>
        <time>2019-04-04T11:51:36Z</time>
      </trkpt>
      <trkpt lat="59.976234755237" lon="15.789237995742">
        <ele>100</ele>
        <time>2019-04-04T11:51:41Z</time>
      </trkpt>
      <trkpt lat="59.976110703117" lon="15.788893918747">
        <ele>100.6</ele>
        <time>2019-04-04T11:51:46Z</time>
      </trkpt>
      <trkpt lat="59.97599226687" lon="15.788553529788">
        <ele>101</ele>
        <time>2019-04-04T11:51:51Z</time>
      </trkpt>
      <trkpt lat="59.975973072319" lon="15.788486809864">
        <ele>101.2</ele>
        <time>2019-04-04T11:51:52Z</time>
      </trkpt>
      <trkpt lat="59.975864442895" lon="15.78817533846">
        <ele>101.4</ele>
        <time>2019-04-04T11:51:57Z</time>
      </trkpt>
      <trkpt lat="59.97575002996" lon="15.787865543436">
        <ele>102.2</ele>
        <time>2019-04-04T11:52:02Z</time>
      </trkpt>
      <trkpt lat="59.975727566468" lon="15.787804942299">
        <ele>102.2</ele>
        <time>2019-04-04T11:52:03Z</time>
      </trkpt>
      <trkpt lat="59.975647351685" lon="15.7874092328">
        <ele>102.4</ele>
        <time>2019-04-04T11:52:09Z</time>
      </trkpt>
      <trkpt lat="59.975577865734" lon="15.787077644836">
        <ele>103</ele>
        <time>2019-04-04T11:52:14Z</time>
      </trkpt>
      <trkpt lat="59.975505865213" lon="15.786695011101">
        <ele>102</ele>
        <time>2019-04-04T11:52:20Z</time>
      </trkpt>
      <trkpt lat="59.975479713685" lon="15.786303827828">
        <ele>101.2</ele>
        <time>2019-04-04T11:52:26Z</time>
      </trkpt>
      <trkpt lat="59.975475438916" lon="15.786250686582">
        <ele>101.2</ele>
        <time>2019-04-04T11:52:27Z</time>
      </trkpt>
      <trkpt lat="59.975474433088" lon="15.786115654173">
        <ele>101.2</ele>
        <time>2019-04-04T11:52:36Z</time>
      </trkpt>
      <trkpt lat="59.975474600726" lon="15.786113055784">
        <ele>101.2</ele>
        <time>2019-04-04T11:52:42Z</time>
      </trkpt>
      <trkpt lat="59.97548851468" lon="15.786114564526">
        <ele>101.2</ele>
        <time>2019-04-04T11:52:48Z</time>
      </trkpt>
      <trkpt lat="59.975502847729" lon="15.786126299186">
        <ele>101.4</ele>
        <time>2019-04-04T11:52:54Z</time>
      </trkpt>
      <trkpt lat="59.975532519655" lon="15.786210872557">
        <ele>100.8</ele>
        <time>2019-04-04T11:53:02Z</time>
      </trkpt>
      <trkpt lat="59.975582727236" lon="15.786594344482">
        <ele>100.6</ele>
        <time>2019-04-04T11:53:08Z</time>
      </trkpt>
      <trkpt lat="59.975627905677" lon="15.786942528608">
        <ele>102</ele>
        <time>2019-04-04T11:53:13Z</time>
      </trkpt>
      <trkpt lat="59.975703845691" lon="15.787295574236">
        <ele>101.8</ele>
        <time>2019-04-04T11:53:18Z</time>
      </trkpt>
      <trkpt lat="59.975759333869" lon="15.787707796078">
        <ele>101.4</ele>
        <time>2019-04-04T11:53:24Z</time>
      </trkpt>
      <trkpt lat="59.975874165899" lon="15.788064110647">
        <ele>102.2</ele>
        <time>2019-04-04T11:53:30Z</time>
      </trkpt>
      <trkpt lat="59.975980364572" lon="15.788393351679">
        <ele>100.4</ele>
        <time>2019-04-04T11:53:35Z</time>
      </trkpt>
      <trkpt lat="59.976086563245" lon="15.788706918558">
        <ele>101</ele>
        <time>2019-04-04T11:53:40Z</time>
      </trkpt>
      <trkpt lat="59.97620600532" lon="15.789057281978">
        <ele>101.2</ele>
        <time>2019-04-04T11:53:46Z</time>
      </trkpt>
      <trkpt lat="59.97632670468" lon="15.789394653453">
        <ele>102</ele>
        <time>2019-04-04T11:53:52Z</time>
      </trkpt>
      <trkpt lat="59.97642728748" lon="15.789712076006">
        <ele>100.6</ele>
        <time>2019-04-04T11:53:58Z</time>
      </trkpt>
      <trkpt lat="59.976461150356" lon="15.789813413177">
        <ele>100</ele>
        <time>2019-04-04T11:54:00Z</time>
      </trkpt>
      <trkpt lat="59.976484032943" lon="15.789876612703">
        <ele>99.4</ele>
        <time>2019-04-04T11:54:02Z</time>
      </trkpt>
      <trkpt lat="59.976534994895" lon="15.789980212987">
        <ele>99.8</ele>
        <time>2019-04-04T11:54:08Z</time>
      </trkpt>
      <trkpt lat="59.976545807546" lon="15.79003947302">
        <ele>99.8</ele>
        <time>2019-04-04T11:54:11Z</time>
      </trkpt>
      <trkpt lat="59.976576569119" lon="15.790125136038">
        <ele>100</ele>
        <time>2019-04-04T11:54:17Z</time>
      </trkpt>
      <trkpt lat="59.976588387598" lon="15.790166961719">
        <ele>99.4</ele>
        <time>2019-04-04T11:54:20Z</time>
      </trkpt>
      <trkpt lat="59.976595512213" lon="15.79016184876">
        <ele>99.2</ele>
        <time>2019-04-04T11:54:26Z</time>
      </trkpt>
      <trkpt lat="59.976569947418" lon="15.79016520152">
        <ele>99.4</ele>
        <time>2019-04-04T11:54:32Z</time>
      </trkpt>
      <trkpt lat="59.976527451185" lon="15.790003514669">
        <ele>100.4</ele>
        <time>2019-04-04T11:54:37Z</time>
      </trkpt>
      <trkpt lat="59.976503730408" lon="15.789944841369">
        <ele>101.2</ele>
        <time>2019-04-04T11:54:38Z</time>
      </trkpt>
      <trkpt lat="59.976454528655" lon="15.78981819086">
        <ele>102.2</ele>
        <time>2019-04-04T11:54:40Z</time>
      </trkpt>
      <trkpt lat="59.976331314725" lon="15.789489201285">
        <ele>101.4</ele>
        <time>2019-04-04T11:54:45Z</time>
      </trkpt>
      <trkpt lat="59.976283621714" lon="15.789359533292">
        <ele>101.2</ele>
        <time>2019-04-04T11:54:47Z</time>
      </trkpt>
      <trkpt lat="59.976162922354" lon="15.789042948929">
        <ele>100.8</ele>
        <time>2019-04-04T11:54:52Z</time>
      </trkpt>
      <trkpt lat="59.976095615697" lon="15.788851673971">
        <ele>100</ele>
        <time>2019-04-04T11:54:55Z</time>
      </trkpt>
      <trkpt lat="59.975991847775" lon="15.788535005789">
        <ele>100</ele>
        <time>2019-04-04T11:55:00Z</time>
      </trkpt>
      <trkpt lat="59.975903334911" lon="15.788294529078">
        <ele>101</ele>
        <time>2019-04-04T11:55:04Z</time>
      </trkpt>
      <trkpt lat="59.975793867297" lon="15.787988338271">
        <ele>101</ele>
        <time>2019-04-04T11:55:09Z</time>
      </trkpt>
      <trkpt lat="59.975722788785" lon="15.78780234391">
        <ele>103.4</ele>
        <time>2019-04-04T11:55:12Z</time>
      </trkpt>
      <trkpt lat="59.975679454362" lon="15.787678710885">
        <ele>101.8</ele>
        <time>2019-04-04T11:55:14Z</time>
      </trkpt>
      <trkpt lat="59.975653302834" lon="15.787553066204">
        <ele>103</ele>
        <time>2019-04-04T11:55:16Z</time>
      </trkpt>
      <trkpt lat="59.975601586511" lon="15.787193063599">
        <ele>102.6</ele>
        <time>2019-04-04T11:55:21Z</time>
      </trkpt>
      <trkpt lat="59.97552539504" lon="15.786855859762">
        <ele>102</ele>
        <time>2019-04-04T11:55:26Z</time>
      </trkpt>
      <trkpt lat="59.975501590444" lon="15.786468280706">
        <ele>101.6</ele>
        <time>2019-04-04T11:55:32Z</time>
      </trkpt>
      <trkpt lat="59.975494130553" lon="15.786242975234">
        <ele>101.8</ele>
        <time>2019-04-04T11:55:37Z</time>
      </trkpt>
      <trkpt lat="59.975518186606" lon="15.786273904445">
        <ele>102</ele>
        <time>2019-04-04T11:55:43Z</time>
      </trkpt>
      <trkpt lat="59.97551114581" lon="15.786185391581">
        <ele>102</ele>
        <time>2019-04-04T11:55:49Z</time>
      </trkpt>
      <trkpt lat="59.975508212145" lon="15.786096040527">
        <ele>101.2</ele>
        <time>2019-04-04T11:55:55Z</time>
      </trkpt>
      <trkpt lat="59.975502428634" lon="15.786034014467">
        <ele>100.8</ele>
        <time>2019-04-04T11:56:00Z</time>
      </trkpt>
      <trkpt lat="59.975507709231" lon="15.786061758556">
        <ele>100.8</ele>
        <time>2019-04-04T11:56:06Z</time>
      </trkpt>
      <trkpt lat="59.975535620958" lon="15.786146667203">
        <ele>100.8</ele>
        <time>2019-04-04T11:56:12Z</time>
      </trkpt>
      <trkpt lat="59.975553222948" lon="15.786209196177">
        <ele>100.8</ele>
        <time>2019-04-04T11:56:18Z</time>
      </trkpt>
      <trkpt lat="59.97556814273" lon="15.786264935812">
        <ele>101</ele>
        <time>2019-04-04T11:56:24Z</time>
      </trkpt>
      <trkpt lat="59.975571327852" lon="15.786271054599">
        <ele>101.2</ele>
        <time>2019-04-04T11:56:30Z</time>
      </trkpt>
      <trkpt lat="59.975567891273" lon="15.786265271088">
        <ele>101.2</ele>
        <time>2019-04-04T11:56:36Z</time>
      </trkpt>
      <trkpt lat="59.975555737518" lon="15.786211543109">
        <ele>101.2</ele>
        <time>2019-04-04T11:56:42Z</time>
      </trkpt>
      <trkpt lat="59.97556311359" lon="15.786231659669">
        <ele>101</ele>
        <time>2019-04-04T11:56:48Z</time>
      </trkpt>
      <trkpt lat="59.97558406834" lon="15.786237610818">
        <ele>101</ele>
        <time>2019-04-04T11:56:54Z</time>
      </trkpt>
      <trkpt lat="59.97556814273" lon="15.786225289425">
        <ele>101</ele>
        <time>2019-04-04T11:57:00Z</time>
      </trkpt>
      <trkpt lat="59.975573758603" lon="15.786229312737">
        <ele>100.6</ele>
        <time>2019-04-04T11:57:04Z</time>
      </trkpt>
      <trkpt lat="59.975585996177" lon="15.786327297148">
        <ele>100.2</ele>
        <time>2019-04-04T11:57:10Z</time>
      </trkpt>
      <trkpt lat="59.975604268719" lon="15.78644363792">
        <ele>100.2</ele>
        <time>2019-04-04T11:57:12Z</time>
      </trkpt>
      <trkpt lat="59.97563184517" lon="15.786849908613">
        <ele>101.8</ele>
        <time>2019-04-04T11:57:17Z</time>
      </trkpt>
      <trkpt lat="59.975645088572" lon="15.78698929961">
        <ele>102</ele>
        <time>2019-04-04T11:57:19Z</time>
      </trkpt>
      <trkpt lat="59.975727482649" lon="15.787332706053">
        <ele>102.6</ele>
        <time>2019-04-04T11:57:24Z</time>
      </trkpt>
      <trkpt lat="59.975784982483" lon="15.787704694775">
        <ele>102</ele>
        <time>2019-04-04T11:57:29Z</time>
      </trkpt>
      <trkpt lat="59.975888918043" lon="15.788027984658">
        <ele>101.2</ele>
        <time>2019-04-04T11:57:34Z</time>
      </trkpt>
      <trkpt lat="59.975909705155" lon="15.788094453125">
        <ele>101</ele>
        <time>2019-04-04T11:57:35Z</time>
      </trkpt>
      <trkpt lat="59.976014478905" lon="15.7884150608">
        <ele>101.4</ele>
        <time>2019-04-04T11:57:40Z</time>
      </trkpt>
      <trkpt lat="59.976110619298" lon="15.788723766177">
        <ele>100</ele>
        <time>2019-04-04T11:57:45Z</time>
      </trkpt>
      <trkpt lat="59.976177590679" lon="15.788908000339">
        <ele>98.2</ele>
        <time>2019-04-04T11:57:48Z</time>
      </trkpt>
      <trkpt lat="59.976293260899" lon="15.7892532508">
        <ele>98.6</ele>
        <time>2019-04-04T11:57:54Z</time>
      </trkpt>
      <trkpt lat="59.976406835644" lon="15.789605709695">
        <ele>98.4</ele>
        <time>2019-04-04T11:58:00Z</time>
      </trkpt>
      <trkpt lat="59.97652116476" lon="15.789904021516">
        <ele>98.2</ele>
        <time>2019-04-04T11:58:05Z</time>
      </trkpt>
      <trkpt lat="59.976598613516" lon="15.790134942861">
        <ele>99.4</ele>
        <time>2019-04-04T11:58:09Z</time>
      </trkpt>
      <trkpt lat="59.9766183948" lon="15.790226892304">
        <ele>99.2</ele>
        <time>2019-04-04T11:58:12Z</time>
      </trkpt>
      <trkpt lat="59.976622334293" lon="15.790243237009">
        <ele>99.4</ele>
        <time>2019-04-04T11:58:18Z</time>
      </trkpt>
      <trkpt lat="59.976620657913" lon="15.790244578113">
        <ele>99.4</ele>
        <time>2019-04-04T11:58:24Z</time>
      </trkpt>
      <trkpt lat="59.976607749787" lon="15.790225467381">
        <ele>99.2</ele>
        <time>2019-04-04T11:58:30Z</time>
      </trkpt>
      <trkpt lat="59.976584615743" lon="15.790197220378">
        <ele>99.2</ele>
        <time>2019-04-04T11:58:36Z</time>
      </trkpt>
      <trkpt lat="59.976561481699" lon="15.790137792707">
        <ele>99</ele>
        <time>2019-04-04T11:58:40Z</time>
      </trkpt>
      <trkpt lat="59.976443716004" lon="15.789853311021">
        <ele>99.4</ele>
        <time>2019-04-04T11:58:46Z</time>
      </trkpt>
      <trkpt lat="59.976338020245" lon="15.789524069989">
        <ele>100.2</ele>
        <time>2019-04-04T11:58:51Z</time>
      </trkpt>
      <trkpt lat="59.976227211527" lon="15.789204384323">
        <ele>100.4</ele>
        <time>2019-04-04T11:58:56Z</time>
      </trkpt>
      <trkpt lat="59.976147918753" lon="15.788944377785">
        <ele>100.4</ele>
        <time>2019-04-04T11:59:00Z</time>
      </trkpt>
      <trkpt lat="59.976031410343" lon="15.788628380155">
        <ele>100.6</ele>
        <time>2019-04-04T11:59:05Z</time>
      </trkpt>
      <trkpt lat="59.975920098711" lon="15.788325290651">
        <ele>100.6</ele>
        <time>2019-04-04T11:59:10Z</time>
      </trkpt>
      <trkpt lat="59.975798058247" lon="15.788029996314">
        <ele>100.8</ele>
        <time>2019-04-04T11:59:15Z</time>
      </trkpt>
      <trkpt lat="59.975690769927" lon="15.787711065019">
        <ele>101.2</ele>
        <time>2019-04-04T11:59:20Z</time>
      </trkpt>
      <trkpt lat="59.975645004753" lon="15.787363719083">
        <ele>101.2</ele>
        <time>2019-04-04T11:59:25Z</time>
      </trkpt>
      <trkpt lat="59.975582978693" lon="15.787010757274">
        <ele>101.6</ele>
        <time>2019-04-04T11:59:31Z</time>
      </trkpt>
      <trkpt lat="59.975545343962" lon="15.78670431501">
        <ele>102.6</ele>
        <time>2019-04-04T11:59:36Z</time>
      </trkpt>
      <trkpt lat="59.97554299703" lon="15.786497617356">
        <ele>101.4</ele>
        <time>2019-04-04T11:59:40Z</time>
      </trkpt>
      <trkpt lat="59.975543416125" lon="15.786452606553">
        <ele>101.2</ele>
        <time>2019-04-04T11:59:42Z</time>
      </trkpt>
      <trkpt lat="59.975545846876" lon="15.786475237683">
        <ele>101.2</ele>
        <time>2019-04-04T11:59:48Z</time>
      </trkpt>
      <trkpt lat="59.975541823564" lon="15.786455456399">
        <ele>101</ele>
        <time>2019-04-04T11:59:54Z</time>
      </trkpt>
      <trkpt lat="59.975536040053" lon="15.786382198593">
        <ele>101.2</ele>
        <time>2019-04-04T12:00:00Z</time>
      </trkpt>
      <trkpt lat="59.975537045881" lon="15.786398543298">
        <ele>101.2</ele>
        <time>2019-04-04T12:00:06Z</time>
      </trkpt>
      <trkpt lat="59.975567975092" lon="15.786530558223">
        <ele>101.2</ele>
        <time>2019-04-04T12:00:13Z</time>
      </trkpt>
      <trkpt lat="59.975623714727" lon="15.786947976843">
        <ele>101.2</ele>
        <time>2019-04-04T12:00:19Z</time>
      </trkpt>
      <trkpt lat="59.975719603663" lon="15.787274116572">
        <ele>101</ele>
        <time>2019-04-04T12:00:24Z</time>
      </trkpt>
      <trkpt lat="59.975780288619" lon="15.787611068952">
        <ele>100.8</ele>
        <time>2019-04-04T12:00:29Z</time>
      </trkpt>
      <trkpt lat="59.975873495347" lon="15.787967551159">
        <ele>100.6</ele>
        <time>2019-04-04T12:00:35Z</time>
      </trkpt>
      <trkpt lat="59.975963684591" lon="15.788330655067">
        <ele>100.8</ele>
        <time>2019-04-04T12:00:41Z</time>
      </trkpt>
      <trkpt lat="59.976073990395" lon="15.78862125554">
        <ele>101.2</ele>
        <time>2019-04-04T12:00:46Z</time>
      </trkpt>
      <trkpt lat="59.976111792764" lon="15.788737009579">
        <ele>100.2</ele>
        <time>2019-04-04T12:00:48Z</time>
      </trkpt>
      <trkpt lat="59.976223104396" lon="15.789084104058">
        <ele>100</ele>
        <time>2019-04-04T12:00:54Z</time>
      </trkpt>
      <trkpt lat="59.976324693024" lon="15.789395324005">
        <ele>99.8</ele>
        <time>2019-04-04T12:01:00Z</time>
      </trkpt>
      <trkpt lat="59.976447068764" lon="15.789737473163">
        <ele>99</ele>
        <time>2019-04-04T12:01:06Z</time>
      </trkpt>
      <trkpt lat="59.976577910223" lon="15.790130081359">
        <ele>99.4</ele>
        <time>2019-04-04T12:01:14Z</time>
      </trkpt>
      <trkpt lat="59.976590399254" lon="15.790146342245">
        <ele>99.4</ele>
        <time>2019-04-04T12:01:16Z</time>
      </trkpt>
      <trkpt lat="59.976603139742" lon="15.790126980056">
        <ele>99.4</ele>
        <time>2019-04-04T12:01:22Z</time>
      </trkpt>
      <trkpt lat="59.976606827778" lon="15.790122537649">
        <ele>99.2</ele>
        <time>2019-04-04T12:01:26Z</time>
      </trkpt>
      <trkpt lat="59.976612862746" lon="15.790121699459">
        <ele>99</ele>
        <time>2019-04-04T12:01:32Z</time>
      </trkpt>
      <trkpt lat="59.976619065352" lon="15.79011826288">
        <ele>99</ele>
        <time>2019-04-04T12:01:38Z</time>
      </trkpt>
      <trkpt lat="59.976528876108" lon="15.789913493063">
        <ele>100.4</ele>
        <time>2019-04-04T12:01:50Z</time>
      </trkpt>
      <trkpt lat="59.97638286341" lon="15.789598752718">
        <ele>99.6</ele>
        <time>2019-04-04T12:01:55Z</time>
      </trkpt>
      <trkpt lat="59.976257554005" lon="15.789283593278">
        <ele>100.8</ele>
        <time>2019-04-04T12:02:00Z</time>
      </trkpt>
      <trkpt lat="59.976149092219" lon="15.788939097188">
        <ele>101.4</ele>
        <time>2019-04-04T12:02:05Z</time>
      </trkpt>
      <trkpt lat="59.97607776225" lon="15.788756120311">
        <ele>100.4</ele>
        <time>2019-04-04T12:02:08Z</time>
      </trkpt>
      <trkpt lat="59.975953039578" lon="15.788427214555">
        <ele>99.8</ele>
        <time>2019-04-04T12:02:14Z</time>
      </trkpt>
      <trkpt lat="59.975827478716" lon="15.78809822498">
        <ele>100.6</ele>
        <time>2019-04-04T12:02:20Z</time>
      </trkpt>
      <trkpt lat="59.975714742161" lon="15.787783484635">
        <ele>101.2</ele>
        <time>2019-04-04T12:02:25Z</time>
      </trkpt>
      <trkpt lat="59.975651207359" lon="15.787432199206">
        <ele>100.6</ele>
        <time>2019-04-04T12:02:30Z</time>
      </trkpt>
      <trkpt lat="59.97559077386" lon="15.787088625125">
        <ele>100.6</ele>
        <time>2019-04-04T12:02:35Z</time>
      </trkpt>
      <trkpt lat="59.975546685066" lon="15.786874299942">
        <ele>102.8</ele>
        <time>2019-04-04T12:02:38Z</time>
      </trkpt>
      <trkpt lat="59.975524640669" lon="15.786721497905">
        <ele>101</ele>
        <time>2019-04-04T12:02:40Z</time>
      </trkpt>
      <trkpt lat="59.975507038679" lon="15.786404075352">
        <ele>100</ele>
        <time>2019-04-04T12:02:44Z</time>
      </trkpt>
      <trkpt lat="59.975508379783" lon="15.786239371017">
        <ele>100.4</ele>
        <time>2019-04-04T12:02:48Z</time>
      </trkpt>
      <trkpt lat="59.975513408923" lon="15.786237024085">
        <ele>102</ele>
        <time>2019-04-04T12:02:49Z</time>
      </trkpt>
      <trkpt lat="59.97552623323" lon="15.786232833135">
        <ele>102</ele>
        <time>2019-04-04T12:02:55Z</time>
      </trkpt>
      <trkpt lat="59.975526652325" lon="15.786223445407">
        <ele>101.8</ele>
        <time>2019-04-04T12:03:01Z</time>
      </trkpt>
      <trkpt lat="59.975510139982" lon="15.786123533159">
        <ele>102</ele>
        <time>2019-04-04T12:03:07Z</time>
      </trkpt>
      <trkpt lat="59.975510391439" lon="15.786110541214">
        <ele>101.2</ele>
        <time>2019-04-04T12:03:08Z</time>
      </trkpt>
      <trkpt lat="59.975524808307" lon="15.786153707999">
        <ele>101.4</ele>
        <time>2019-04-04T12:03:14Z</time>
      </trkpt>
      <trkpt lat="59.975586499091" lon="15.786577161587">
        <ele>101.2</ele>
        <time>2019-04-04T12:03:22Z</time>
      </trkpt>
      <trkpt lat="59.975632515722" lon="15.78695493382">
        <ele>102.2</ele>
        <time>2019-04-04T12:03:27Z</time>
      </trkpt>
      <trkpt lat="59.975671156281" lon="15.787154590678">
        <ele>103.2</ele>
        <time>2019-04-04T12:03:30Z</time>
      </trkpt>
      <trkpt lat="59.97573997168" lon="15.787505959926">
        <ele>102.4</ele>
        <time>2019-04-04T12:03:35Z</time>
      </trkpt>
      <trkpt lat="59.975754556186" lon="15.787635460281">
        <ele>102.2</ele>
        <time>2019-04-04T12:03:37Z</time>
      </trkpt>
      <trkpt lat="59.975805685776" lon="15.787816341683">
        <ele>100.8</ele>
        <time>2019-04-04T12:03:40Z</time>
      </trkpt>
      <trkpt lat="59.975910794802" lon="15.788129573286">
        <ele>101</ele>
        <time>2019-04-04T12:03:45Z</time>
      </trkpt>
      <trkpt lat="59.976025207737" lon="15.788470297521">
        <ele>100.6</ele>
        <time>2019-04-04T12:03:50Z</time>
      </trkpt>
      <trkpt lat="59.976094777507" lon="15.788663416497">
        <ele>103.2</ele>
        <time>2019-04-04T12:03:53Z</time>
      </trkpt>
      <trkpt lat="59.976122353958" lon="15.788730387878">
        <ele>100.2</ele>
        <time>2019-04-04T12:03:54Z</time>
      </trkpt>
      <trkpt lat="59.976168119132" lon="15.788866258477">
        <ele>99</ele>
        <time>2019-04-04T12:03:56Z</time>
      </trkpt>
      <trkpt lat="59.976274066348" lon="15.789167587782">
        <ele>99.2</ele>
        <time>2019-04-04T12:04:01Z</time>
      </trkpt>
      <trkpt lat="59.976368949456" lon="15.789477634263">
        <ele>99.4</ele>
        <time>2019-04-04T12:04:06Z</time>
      </trkpt>
      <trkpt lat="59.976477159785" lon="15.789821124525">
        <ele>99.4</ele>
        <time>2019-04-04T12:04:11Z</time>
      </trkpt>
      <trkpt lat="59.976592997643" lon="15.7901752598">
        <ele>99.2</ele>
        <time>2019-04-04T12:04:16Z</time>
      </trkpt>
      <trkpt lat="59.976706153293" lon="15.790504500832">
        <ele>98.8</ele>
        <time>2019-04-04T12:04:22Z</time>
      </trkpt>
      <trkpt lat="59.976710763338" lon="15.790493604362">
        <ele>98.8</ele>
        <time>2019-04-04T12:04:28Z</time>
      </trkpt>
      <trkpt lat="59.976719731971" lon="15.790546829427">
        <ele>98.8</ele>
        <time>2019-04-04T12:04:34Z</time>
      </trkpt>
      <trkpt lat="59.976713026451" lon="15.790607849659">
        <ele>98.6</ele>
        <time>2019-04-04T12:04:40Z</time>
      </trkpt>
      <trkpt lat="59.976709170777" lon="15.790595612085">
        <ele>98.4</ele>
        <time>2019-04-04T12:04:46Z</time>
      </trkpt>
      <trkpt lat="59.976723922921" lon="15.790607514383">
        <ele>98.8</ele>
        <time>2019-04-04T12:04:52Z</time>
      </trkpt>
      <trkpt lat="59.976744542395" lon="15.790655375032">
        <ele>99</ele>
        <time>2019-04-04T12:04:55Z</time>
      </trkpt>
      <trkpt lat="59.97679525289" lon="15.790749000855">
        <ele>98.8</ele>
        <time>2019-04-04T12:05:01Z</time>
      </trkpt>
      <trkpt lat="59.976839844598" lon="15.790852014406">
        <ele>98.4</ele>
        <time>2019-04-04T12:05:07Z</time>
      </trkpt>
      <trkpt lat="59.976886447962" lon="15.790974976879">
        <ele>98.8</ele>
        <time>2019-04-04T12:05:13Z</time>
      </trkpt>
      <trkpt lat="59.976939086294" lon="15.791096346791">
        <ele>98.8</ele>
        <time>2019-04-04T12:05:19Z</time>
      </trkpt>
      <trkpt lat="59.976949898945" lon="15.791116044256">
        <ele>99</ele>
        <time>2019-04-04T12:05:20Z</time>
      </trkpt>
      <trkpt lat="59.97701821143" lon="15.791242191851">
        <ele>99.2</ele>
        <time>2019-04-04T12:05:26Z</time>
      </trkpt>
      <trkpt lat="59.977084176983" lon="15.791364735229">
        <ele>98.8</ele>
        <time>2019-04-04T12:05:32Z</time>
      </trkpt>
      <trkpt lat="59.977147963242" lon="15.791500689647">
        <ele>99.2</ele>
        <time>2019-04-04T12:05:38Z</time>
      </trkpt>
      <trkpt lat="59.977204205791" lon="15.791625244681">
        <ele>98.6</ele>
        <time>2019-04-04T12:05:44Z</time>
      </trkpt>
      <trkpt lat="59.977256844123" lon="15.791730186069">
        <ele>99</ele>
        <time>2019-04-04T12:05:50Z</time>
      </trkpt>
      <trkpt lat="59.977332616499" lon="15.791832026154">
        <ele>99</ele>
        <time>2019-04-04T12:05:56Z</time>
      </trkpt>
      <trkpt lat="59.977351894869" lon="15.791876450224">
        <ele>98</ele>
        <time>2019-04-04T12:05:58Z</time>
      </trkpt>
      <trkpt lat="59.977403275916" lon="15.791974937549">
        <ele>98.2</ele>
        <time>2019-04-04T12:06:04Z</time>
      </trkpt>
      <trkpt lat="59.977461949216" lon="15.792052386305">
        <ele>98.4</ele>
        <time>2019-04-04T12:06:10Z</time>
      </trkpt>
      <trkpt lat="59.977514587548" lon="15.792144754843">
        <ele>98.8</ele>
        <time>2019-04-04T12:06:16Z</time>
      </trkpt>
      <trkpt lat="59.977568986079" lon="15.792267968773">
        <ele>98.8</ele>
        <time>2019-04-04T12:06:22Z</time>
      </trkpt>
      <trkpt lat="59.977631263596" lon="15.792377101111">
        <ele>98.8</ele>
        <time>2019-04-04T12:06:28Z</time>
      </trkpt>
      <trkpt lat="59.977715166415" lon="15.792484724707">
        <ele>98.4</ele>
        <time>2019-04-04T12:06:34Z</time>
      </trkpt>
      <trkpt lat="59.977838464164" lon="15.792662504806">
        <ele>98.8</ele>
        <time>2019-04-04T12:06:41Z</time>
      </trkpt>
      <trkpt lat="59.977880289845" lon="15.792728302721">
        <ele>99</ele>
        <time>2019-04-04T12:06:43Z</time>
      </trkpt>
      <trkpt lat="59.977980202093" lon="15.792836345412">
        <ele>99.4</ele>
        <time>2019-04-04T12:06:47Z</time>
      </trkpt>
      <trkpt lat="59.978130070465" lon="15.793013119683">
        <ele>99.6</ele>
        <time>2019-04-04T12:06:53Z</time>
      </trkpt>
      <trkpt lat="59.978271808394" lon="15.793209591419">
        <ele>99.8</ele>
        <time>2019-04-04T12:06:59Z</time>
      </trkpt>
      <trkpt lat="59.978404158595" lon="15.793420144747">
        <ele>100</ele>
        <time>2019-04-04T12:07:05Z</time>
      </trkpt>
      <trkpt lat="59.978446654828" lon="15.793491893811">
        <ele>100</ele>
        <time>2019-04-04T12:07:07Z</time>
      </trkpt>
      <trkpt lat="59.978577663925" lon="15.793687359719">
        <ele>100.2</ele>
        <time>2019-04-04T12:07:13Z</time>
      </trkpt>
      <trkpt lat="59.978728538125" lon="15.793840748489">
        <ele>100.4</ele>
        <time>2019-04-04T12:07:19Z</time>
      </trkpt>
      <trkpt lat="59.978865833647" lon="15.794024144461">
        <ele>100.8</ele>
        <time>2019-04-04T12:07:25Z</time>
      </trkpt>
      <trkpt lat="59.979010756698" lon="15.794205780234">
        <ele>100</ele>
        <time>2019-04-04T12:07:31Z</time>
      </trkpt>
      <trkpt lat="59.97915643412" lon="15.79439889921">
        <ele>99.8</ele>
        <time>2019-04-04T12:07:37Z</time>
      </trkpt>
      <trkpt lat="59.979211167927" lon="15.794507612453">
        <ele>99</ele>
        <time>2019-04-04T12:07:40Z</time>
      </trkpt>
      <trkpt lat="59.979343937223" lon="15.794725709491">
        <ele>98.2</ele>
        <time>2019-04-04T12:07:46Z</time>
      </trkpt>
      <trkpt lat="59.979363969964" lon="15.79475680634">
        <ele>97.8</ele>
        <time>2019-04-04T12:07:47Z</time>
      </trkpt>
      <trkpt lat="59.979494979061" lon="15.794943806529">
        <ele>97.8</ele>
        <time>2019-04-04T12:07:53Z</time>
      </trkpt>
      <trkpt lat="59.979636633171" lon="15.795141619369">
        <ele>98.2</ele>
        <time>2019-04-04T12:07:59Z</time>
      </trkpt>
      <trkpt lat="59.979763702775" lon="15.795339096933">
        <ele>97.6</ele>
        <time>2019-04-04T12:08:05Z</time>
      </trkpt>
      <trkpt lat="59.979893789863" lon="15.795546548958">
        <ele>97.6</ele>
        <time>2019-04-04T12:08:11Z</time>
      </trkpt>
      <trkpt lat="59.980023457856" lon="15.795716198614">
        <ele>97</ele>
        <time>2019-04-04T12:08:17Z</time>
      </trkpt>
      <trkpt lat="59.980143570483" lon="15.795877047275">
        <ele>97.2</ele>
        <time>2019-04-04T12:08:23Z</time>
      </trkpt>
      <trkpt lat="59.980261336178" lon="15.796087600603">
        <ele>96.6</ele>
        <time>2019-04-04T12:08:29Z</time>
      </trkpt>
      <trkpt lat="59.98039192618" lon="15.796280719579">
        <ele>97</ele>
        <time>2019-04-04T12:08:35Z</time>
      </trkpt>
      <trkpt lat="59.980518241413" lon="15.796479538247">
        <ele>96.4</ele>
        <time>2019-04-04T12:08:41Z</time>
      </trkpt>
      <trkpt lat="59.980632905805" lon="15.796657485984">
        <ele>96.2</ele>
        <time>2019-04-04T12:08:47Z</time>
      </trkpt>
      <trkpt lat="59.980746648188" lon="15.796854963548">
        <ele>96</ele>
        <time>2019-04-04T12:08:53Z</time>
      </trkpt>
      <trkpt lat="59.980880674769" lon="15.797066941799">
        <ele>96</ele>
        <time>2019-04-04T12:08:59Z</time>
      </trkpt>
      <trkpt lat="59.980997266998" lon="15.797274142367">
        <ele>95.8</ele>
        <time>2019-04-04T12:09:05Z</time>
      </trkpt>
      <trkpt lat="59.9810188923" lon="15.797306831777">
        <ele>95.6</ele>
        <time>2019-04-04T12:09:06Z</time>
      </trkpt>
      <trkpt lat="59.981061556171" lon="15.797366175629">
        <ele>94.4</ele>
        <time>2019-04-04T12:09:08Z</time>
      </trkpt>
      <trkpt lat="59.981210502534" lon="15.797476565252">
        <ele>94.4</ele>
        <time>2019-04-04T12:09:14Z</time>
      </trkpt>
      <trkpt lat="59.981332123903" lon="15.797374976624">
        <ele>94.6</ele>
        <time>2019-04-04T12:09:20Z</time>
      </trkpt>
      <trkpt lat="59.981448799951" lon="15.797300293895">
        <ele>95.8</ele>
        <time>2019-04-04T12:09:25Z</time>
      </trkpt>
      <trkpt lat="59.981597411038" lon="15.797282524267">
        <ele>96.4</ele>
        <time>2019-04-04T12:09:31Z</time>
      </trkpt>
      <trkpt lat="59.981637308882" lon="15.79715822069">
        <ele>97</ele>
        <time>2019-04-04T12:09:34Z</time>
      </trkpt>
      <trkpt lat="59.981647786257" lon="15.797114467172">
        <ele>97.4</ele>
        <time>2019-04-04T12:09:35Z</time>
      </trkpt>
      <trkpt lat="59.981705956643" lon="15.796826632726">
        <ele>97.8</ele>
        <time>2019-04-04T12:09:41Z</time>
      </trkpt>
      <trkpt lat="59.981717356027" lon="15.796777347154">
        <ele>98</ele>
        <time>2019-04-04T12:09:42Z</time>
      </trkpt>
      <trkpt lat="59.981785165598" lon="15.796512898209">
        <ele>99</ele>
        <time>2019-04-04T12:09:48Z</time>
      </trkpt>
      <trkpt lat="59.981868481684" lon="15.796257585535">
        <ele>100.2</ele>
        <time>2019-04-04T12:09:54Z</time>
      </trkpt>
      <trkpt lat="59.981973674529" lon="15.796044182361">
        <ele>100.8</ele>
        <time>2019-04-04T12:10:00Z</time>
      </trkpt>
      <trkpt lat="59.982054811321" lon="15.795872688687">
        <ele>101.2</ele>
        <time>2019-04-04T12:10:05Z</time>
      </trkpt>
      <trkpt lat="59.982148688601" lon="15.795642437894">
        <ele>101.2</ele>
        <time>2019-04-04T12:10:11Z</time>
      </trkpt>
      <trkpt lat="59.982122537073" lon="15.795324596246">
        <ele>101</ele>
        <time>2019-04-04T12:10:17Z</time>
      </trkpt>
      <trkpt lat="59.98204567505" lon="15.795048664098">
        <ele>101</ele>
        <time>2019-04-04T12:10:23Z</time>
      </trkpt>
      <trkpt lat="59.98196437062" lon="15.794773402502">
        <ele>101.4</ele>
        <time>2019-04-04T12:10:29Z</time>
      </trkpt>
      <trkpt lat="59.981859848327" lon="15.794516078172">
        <ele>100.2</ele>
        <time>2019-04-04T12:10:35Z</time>
      </trkpt>
      <trkpt lat="59.98174644122" lon="15.794232434676">
        <ele>99.8</ele>
        <time>2019-04-04T12:10:41Z</time>
      </trkpt>
      <trkpt lat="59.981635297226" lon="15.793943594402">
        <ele>99.2</ele>
        <time>2019-04-04T12:10:47Z</time>
      </trkpt>
      <trkpt lat="59.981618114331" lon="15.79389598521">
        <ele>99.2</ele>
        <time>2019-04-04T12:10:48Z</time>
      </trkpt>
      <trkpt lat="59.981539911204" lon="15.79356490016">
        <ele>98.8</ele>
        <time>2019-04-04T12:10:54Z</time>
      </trkpt>
      <trkpt lat="59.981551478226" lon="15.793174471258">
        <ele>98.2</ele>
        <time>2019-04-04T12:11:00Z</time>
      </trkpt>
      <trkpt lat="59.981565811275" lon="15.79311646851">
        <ele>98</ele>
        <time>2019-04-04T12:11:01Z</time>
      </trkpt>
      <trkpt lat="59.981714673819" lon="15.792872722858">
        <ele>98.2</ele>
        <time>2019-04-04T12:11:07Z</time>
      </trkpt>
      <trkpt lat="59.981887424778" lon="15.792702235012">
        <ele>98.2</ele>
        <time>2019-04-04T12:11:13Z</time>
      </trkpt>
      <trkpt lat="59.982021535178" lon="15.792513223167">
        <ele>99.2</ele>
        <time>2019-04-04T12:11:18Z</time>
      </trkpt>
      <trkpt lat="59.98216637441" lon="15.792273584646">
        <ele>99</ele>
        <time>2019-04-04T12:11:24Z</time>
      </trkpt>
      <trkpt lat="59.982257485663" lon="15.792206445627">
        <ele>98.8</ele>
        <time>2019-04-04T12:11:30Z</time>
      </trkpt>
      <trkpt lat="59.982262430984" lon="15.792216168631">
        <ele>98.6</ele>
        <time>2019-04-04T12:11:36Z</time>
      </trkpt>
      <trkpt lat="59.982275422929" lon="15.79225145643">
        <ele>98.2</ele>
        <time>2019-04-04T12:11:42Z</time>
      </trkpt>
      <trkpt lat="59.98229126472" lon="15.792344160244">
        <ele>98.2</ele>
        <time>2019-04-04T12:11:46Z</time>
      </trkpt>
      <trkpt lat="59.982287660503" lon="15.792382716984">
        <ele>98.4</ele>
        <time>2019-04-04T12:11:48Z</time>
      </trkpt>
      <trkpt lat="59.982312135651" lon="15.792494280073">
        <ele>98</ele>
        <time>2019-04-04T12:11:53Z</time>
      </trkpt>
      <trkpt lat="59.982355302436" lon="15.792679268606">
        <ele>97</ele>
        <time>2019-04-04T12:11:59Z</time>
      </trkpt>
      <trkpt lat="59.982415903573" lon="15.792865179148">
        <ele>97.2</ele>
        <time>2019-04-04T12:12:05Z</time>
      </trkpt>
      <trkpt lat="59.982451526648" lon="15.793001468842">
        <ele>97.6</ele>
        <time>2019-04-04T12:12:11Z</time>
      </trkpt>
      <trkpt lat="59.98249159213" lon="15.793066009472">
        <ele>97.6</ele>
        <time>2019-04-04T12:12:17Z</time>
      </trkpt>
      <trkpt lat="59.982480528022" lon="15.793162988055">
        <ele>97.6</ele>
        <time>2019-04-04T12:12:21Z</time>
      </trkpt>
      <trkpt lat="59.982513887984" lon="15.793234150386">
        <ele>97.8</ele>
        <time>2019-04-04T12:12:27Z</time>
      </trkpt>
      <trkpt lat="59.982517408382" lon="15.793247729064">
        <ele>97.8</ele>
        <time>2019-04-04T12:12:28Z</time>
      </trkpt>
      <trkpt lat="59.982525874101" lon="15.79326650452">
        <ele>97.8</ele>
        <time>2019-04-04T12:12:30Z</time>
      </trkpt>
      <trkpt lat="59.982537022028" lon="15.793287207813">
        <ele>98.2</ele>
        <time>2019-04-04T12:12:34Z</time>
      </trkpt>
      <trkpt lat="59.982541129159" lon="15.793310677133">
        <ele>98.2</ele>
        <time>2019-04-04T12:12:40Z</time>
      </trkpt>
      <trkpt lat="59.982553869647" lon="15.793355101203">
        <ele>97.2</ele>
        <time>2019-04-04T12:12:45Z</time>
      </trkpt>
      <trkpt lat="59.982571052542" lon="15.793387706794">
        <ele>97</ele>
        <time>2019-04-04T12:12:46Z</time>
      </trkpt>
    </trkseg>
  </trk>
</gpx>